KGYR/GYR METAR and TAF weather

Enter ICAO airport designator
Station Type Date Time Source
KGYR METAR 2018/12/13 18:47 UTC NOAA

KGYR 131847Z VRB05KT 10SM FEW250 16/M06 A3032


Station Type Date Time Source
KGYR Decoded METAR 2018/12/13 18:47 UTC NOAA

Goodyear Municipal, AZ, United States (KGYR) 33-25N 112-23W
Dec 13, 2018 - 01:47 PM EST / 2018.12.13 1847 UTC
Wind: Variable at 6 MPH (5 KT):0
Visibility: 10 mile(s):0
Sky conditions: mostly clear
Temperature: 60 F (16 C)
Dew Point: 21 F (-6 C)
Relative Humidity: 21%
Pressure (altimeter): 30.32 in. Hg (1026 hPa)
ob: KGYR 131847Z VRB05KT 10SM FEW250 16/M06 A3032
cycle: 19

Station Type Date Time Source
KGYR TAF UTC NOAA

Error!


Example: see airport list